sensor_id;sensor_type;location;lat;lon;timestamp;pressure;altitude;pressure_sealevel;temperature;humidity
50650;BME280;36621;60.058;30.346;2023-02-12T00:00:44;101502.94;;;-4.29;66.74
50650;BME280;36621;60.058;30.346;2023-02-12T00:08:16;101519.84;;;-4.38;66.99
50650;BME280;36621;60.058;30.346;2023-02-12T00:15:48;101541.66;;;-4.43;66.92
50650;BME280;36621;60.058;30.346;2023-02-12T00:23:21;101555.13;;;-4.44;66.60
50650;BME280;36621;60.058;30.346;2023-02-12T00:30:53;101536.78;;;-4.65;66.60
50650;BME280;36621;60.058;30.346;2023-02-12T00:38:25;101560.47;;;-4.62;66.69
50650;BME280;36621;60.058;30.346;2023-02-12T00:45:57;101590.25;;;-4.49;66.85
50650;BME280;36621;60.058;30.346;2023-02-12T00:53:32;101602.38;;;-4.55;66.89
50650;BME280;36621;60.058;30.346;2023-02-12T01:01:04;101615.53;;;-4.53;66.87
50650;BME280;36621;60.058;30.346;2023-02-12T01:08:37;101595.41;;;-4.65;66.67
50650;BME280;36621;60.058;30.346;2023-02-12T01:16:13;101611.59;;;-4.49;66.70
50650;BME280;36621;60.058;30.346;2023-02-12T01:23:46;101626.03;;;-4.51;66.38
50650;BME280;36621;60.058;30.346;2023-02-12T01:31:20;101643.88;;;-4.52;66.27
50650;BME280;36621;60.058;30.346;2023-02-12T01:38:55;101659.78;;;-4.60;66.44
50650;BME280;36621;60.058;30.346;2023-02-12T01:46:28;101669.34;;;-4.67;65.92
50650;BME280;36621;60.058;30.346;2023-02-12T01:54:03;101665.59;;;-4.75;66.58
50650;BME280;36621;60.058;30.346;2023-02-12T02:01:36;101708.47;;;-4.68;66.17
50650;BME280;36621;60.058;30.346;2023-02-12T02:09:08;101677.22;;;-4.94;66.56
50650;BME280;36621;60.058;30.346;2023-02-12T02:16:42;101714.44;;;-4.84;65.67
50650;BME280;36621;60.058;30.346;2023-02-12T02:32:49;101729.06;;;-4.88;66.31
50650;BME280;36621;60.058;30.346;2023-02-12T02:40:31;101733.28;;;-4.95;65.89
50650;BME280;36621;60.058;30.346;2023-02-12T02:48:08;101727.84;;;-5.03;65.92
50650;BME280;36621;60.058;30.346;2023-02-12T02:55:46;101723.56;;;-5.24;66.00
50650;BME280;36621;60.058;30.346;2023-02-12T03:03:24;101731.13;;;-5.29;65.50
50650;BME280;36621;60.058;30.346;2023-02-12T03:11:02;101770.34;;;-5.12;65.46
50650;BME280;36621;60.058;30.346;2023-02-12T03:18:41;101767.69;;;-5.21;65.85
50650;BME280;36621;60.058;30.346;2023-02-12T03:26:18;101792.06;;;-5.16;65.93
50650;BME280;36621;60.058;30.346;2023-02-12T03:34:03;101814.06;;;-5.14;66.30
50650;BME280;36621;60.058;30.346;2023-02-12T03:41:41;101823.06;;;-5.25;65.49
50650;BME280;36621;60.058;30.346;2023-02-12T03:49:20;101830.63;;;-5.30;65.32
50650;BME280;36621;60.058;30.346;2023-02-12T03:56:56;101828.69;;;-5.38;65.43
50650;BME280;36621;60.058;30.346;2023-02-12T04:04:30;101831.75;;;-5.43;66.09
50650;BME280;36621;60.058;30.346;2023-02-12T04:12:14;101830.34;;;-5.47;65.42
50650;BME280;36621;60.058;30.346;2023-02-12T04:19:57;101848.03;;;-5.46;65.55
50650;BME280;36621;60.058;30.346;2023-02-12T07:12:51;101864.53;;;-5.13;64.41
50650;BME280;36621;60.058;30.346;2023-02-12T07:20:23;101908.53;;;-4.89;64.66
50650;BME280;36621;60.058;30.346;2023-02-12T07:27:55;101882.19;;;-4.92;64.70
50650;BME280;36621;60.058;30.346;2023-02-12T07:35:27;101943.69;;;-4.56;64.33
50650;BME280;36621;60.058;30.346;2023-02-12T07:43:03;101951.66;;;-4.46;64.89
50650;BME280;36621;60.058;30.346;2023-02-12T07:50:40;101948.16;;;-4.37;64.78
50650;BME280;36621;60.058;30.346;2023-02-12T08:07:19;101944.41;;;-4.07;64.55
50650;BME280;36621;60.058;30.346;2023-02-12T08:14:58;101814.47;;;-4.52;64.32
50650;BME280;36621;60.058;30.346;2023-02-12T08:22:36;101923.75;;;-3.49;64.23
50650;BME280;36621;60.058;30.346;2023-02-12T08:30:12;101900.53;;;-2.94;63.90
50650;BME280;36621;60.058;30.346;2023-02-12T08:37:49;101905.75;;;-2.67;63.95
50650;BME280;36621;60.058;30.346;2023-02-12T08:45:31;101930.53;;;-2.04;63.54
50650;BME280;36621;60.058;30.346;2023-02-12T08:53:09;101924.13;;;-1.77;63.85
50650;BME280;36621;60.058;30.346;2023-02-12T09:00:41;101957.00;;;-1.58;62.75
50650;BME280;36621;60.058;30.346;2023-02-12T09:08:17;101909.31;;;-1.46;63.48
50650;BME280;36621;60.058;30.346;2023-02-12T09:15:50;101903.34;;;-1.15;62.91
50650;BME280;36621;60.058;30.346;2023-02-12T09:23:26;101923.13;;;-0.83;63.88
50650;BME280;36621;60.058;30.346;2023-02-12T09:31:03;101913.53;;;-0.70;62.57
50650;BME280;36621;60.058;30.346;2023-02-12T09:38:48;101928.09;;;-0.31;65.63
50650;BME280;36621;60.058;30.346;2023-02-12T09:46:32;101873.47;;;-0.63;64.56
50650;BME280;36621;60.058;30.346;2023-02-12T09:54:14;101860.75;;;-0.77;64.80
50650;BME280;36621;60.058;30.346;2023-02-12T10:01:50;101877.50;;;-0.59;64.54
50650;BME280;36621;60.058;30.346;2023-02-12T10:09:48;101884.16;;;-0.38;65.74
50650;BME280;36621;60.058;30.346;2023-02-12T10:17:32;101847.97;;;-0.50;65.63
50650;BME280;36621;60.058;30.346;2023-02-12T10:25:17;101830.97;;;0.05;65.19
50650;BME280;36621;60.058;30.346;2023-02-12T10:32:55;101863.22;;;0.60;64.51
50650;BME280;36621;60.058;30.346;2023-02-12T10:40:31;101807.19;;;0.48;64.75
50650;BME280;36621;60.058;30.346;2023-02-12T10:48:07;101846.53;;;0.88;65.80
50650;BME280;36621;60.058;30.346;2023-02-12T10:55:40;101818.75;;;0.72;64.68
50650;BME280;36621;60.058;30.346;2023-02-12T11:03:20;101814.44;;;0.71;65.71
50650;BME280;36621;60.058;30.346;2023-02-12T11:10:53;101781.69;;;0.67;65.11
50650;BME280;36621;60.058;30.346;2023-02-12T11:18:29;101811.66;;;1.17;65.12
50650;BME280;36621;60.058;30.346;2023-02-12T11:26:22;101800.69;;;1.34;66.00
50650;BME280;36621;60.058;30.346;2023-02-12T11:34:34;101788.84;;;1.43;66.86
50650;BME280;36621;60.058;30.346;2023-02-12T11:51:21;101773.53;;;1.29;65.70
50650;BME280;36621;60.058;30.346;2023-02-12T11:59:11;101787.44;;;1.47;67.57
50650;BME280;36621;60.058;30.346;2023-02-12T12:07:16;101762.47;;;1.38;66.41
50650;BME280;36621;60.058;30.346;2023-02-12T12:14:54;101734.09;;;1.36;66.19
50650;BME280;36621;60.058;30.346;2023-02-12T12:22:53;101735.38;;;1.40;66.81
50650;BME280;36621;60.058;30.346;2023-02-12T12:30:47;101709.22;;;1.34;67.11
50650;BME280;36621;60.058;30.346;2023-02-12T12:38:30;101672.06;;;0.93;66.90
50650;BME280;36621;60.058;30.346;2023-02-12T12:46:28;101682.72;;;1.16;67.90
50650;BME280;36621;60.058;30.346;2023-02-12T12:54:15;101675.28;;;1.18;67.83
50650;BME280;36621;60.058;30.346;2023-02-12T13:10:09;101617.34;;;0.85;68.01
50650;BME280;36621;60.058;30.346;2023-02-12T13:17:50;101616.75;;;1.20;68.14
50650;BME280;36621;60.058;30.346;2023-02-12T13:25:30;101618.22;;;1.23;67.16
50650;BME280;36621;60.058;30.346;2023-02-12T13:33:09;101600.63;;;1.20;66.94
50650;BME280;36621;60.058;30.346;2023-02-12T13:40:44;101571.66;;;1.22;67.02
50650;BME280;36621;60.058;30.346;2023-02-12T13:48:38;101564.19;;;1.39;67.97
50650;BME280;36621;60.058;30.346;2023-02-12T13:56:24;101543.78;;;1.30;67.72
50650;BME280;36621;60.058;30.346;2023-02-12T14:04:13;101523.13;;;1.30;68.34
50650;BME280;36621;60.058;30.346;2023-02-12T14:11:49;101501.69;;;1.00;67.55
50650;BME280;36621;60.058;30.346;2023-02-12T14:19:55;101502.41;;;1.09;68.74
50650;BME280;36621;60.058;30.346;2023-02-12T14:27:35;101522.25;;;1.08;69.26
50650;BME280;36621;60.058;30.346;2023-02-12T14:35:30;101507.53;;;1.04;69.93
50650;BME280;36621;60.058;30.346;2023-02-12T14:43:20;101483.44;;;0.96;68.93
50650;BME280;36621;60.058;30.346;2023-02-12T14:50:54;101459.66;;;0.78;69.05
50650;BME280;36621;60.058;30.346;2023-02-12T14:58:27;101438.53;;;0.75;69.57
50650;BME280;36621;60.058;30.346;2023-02-12T15:06:07;101402.50;;;0.69;69.62
50650;BME280;36621;60.058;30.346;2023-02-12T15:13:48;101422.09;;;0.84;70.35
50650;BME280;36621;60.058;30.346;2023-02-12T15:21:25;101414.53;;;0.73;69.75
50650;BME280;36621;60.058;30.346;2023-02-12T15:28:59;101415.34;;;0.74;69.77
50650;BME280;36621;60.058;30.346;2023-02-12T15:36:32;101384.34;;;0.71;70.03
50650;BME280;36621;60.058;30.346;2023-02-12T15:44:23;101345.03;;;0.70;70.96
50650;BME280;36621;60.058;30.346;2023-02-12T15:51:55;101340.97;;;1.02;71.34
50650;BME280;36621;60.058;30.346;2023-02-12T15:59:28;101332.22;;;0.72;70.58
50650;BME280;36621;60.058;30.346;2023-02-12T16:07:03;101307.00;;;0.73;70.94
50650;BME280;36621;60.058;30.346;2023-02-12T16:14:39;101287.56;;;0.71;70.75
50650;BME280;36621;60.058;30.346;2023-02-12T16:22:17;101276.13;;;0.62;71.26
50650;BME280;36621;60.058;30.346;2023-02-12T16:29:52;101265.38;;;0.62;70.97
50650;BME280;36621;60.058;30.346;2023-02-12T16:37:41;101276.03;;;0.77;72.06
50650;BME280;36621;60.058;30.346;2023-02-12T16:45:36;101247.38;;;0.63;72.80
50650;BME280;36621;60.058;30.346;2023-02-12T16:53:30;101255.66;;;0.61;73.12
50650;BME280;36621;60.058;30.346;2023-02-12T17:01:05;101240.63;;;0.45;73.36
50650;BME280;36621;60.058;30.346;2023-02-12T17:08:38;101226.28;;;0.60;74.12
50650;BME280;36621;60.058;30.346;2023-02-12T17:16:11;101200.19;;;0.54;74.11
50650;BME280;36621;60.058;30.346;2023-02-12T17:23:43;101179.75;;;0.59;74.88
50650;BME280;36621;60.058;30.346;2023-02-12T17:31:24;101166.44;;;0.79;75.41
50650;BME280;36621;60.058;30.346;2023-02-12T17:39:03;101145.00;;;0.86;74.88
50650;BME280;36621;60.058;30.346;2023-02-12T17:46:37;101133.47;;;0.99;74.24
50650;BME280;36621;60.058;30.346;2023-02-12T17:54:09;101110.75;;;1.08;74.36
50650;BME280;36621;60.058;30.346;2023-02-12T18:01:43;101090.75;;;1.17;74.55
50650;BME280;36621;60.058;30.346;2023-02-12T18:09:15;101059.94;;;1.20;74.68
50650;BME280;36621;60.058;30.346;2023-02-12T18:16:48;101046.06;;;1.30;74.58
50650;BME280;36621;60.058;30.346;2023-02-12T18:24:20;101048.19;;;1.54;74.35
50650;BME280;36621;60.058;30.346;2023-02-12T18:31:53;101055.44;;;1.67;74.26
50650;BME280;36621;60.058;30.346;2023-02-12T18:39:26;101012.38;;;1.74;73.61
50650;BME280;36621;60.058;30.346;2023-02-12T18:47:00;101005.34;;;1.73;73.78
50650;BME280;36621;60.058;30.346;2023-02-12T18:54:32;101011.13;;;1.83;74.02
50650;BME280;36621;60.058;30.346;2023-02-12T19:02:05;100957.28;;;1.83;73.84
50650;BME280;36621;60.058;30.346;2023-02-12T19:09:37;100994.34;;;2.08;74.12
50650;BME280;36621;60.058;30.346;2023-02-12T19:17:09;100958.09;;;1.97;74.21
50650;BME280;36621;60.058;30.346;2023-02-12T19:24:42;100992.44;;;2.15;74.08
50650;BME280;36621;60.058;30.346;2023-02-12T19:32:15;100997.00;;;2.21;74.52
50650;BME280;36621;60.058;30.346;2023-02-12T19:39:47;100975.63;;;2.26;73.94
50650;BME280;36621;60.058;30.346;2023-02-12T19:47:19;100902.56;;;2.03;74.01
50650;BME280;36621;60.058;30.346;2023-02-12T19:54:52;100933.75;;;2.31;74.11
50650;BME280;36621;60.058;30.346;2023-02-12T20:02:26;100931.88;;;2.38;74.55
50650;BME280;36621;60.058;30.346;2023-02-12T20:09:58;100926.69;;;2.43;74.38
50650;BME280;36621;60.058;30.346;2023-02-12T20:17:37;100858.47;;;1.97;74.66
50650;BME280;36621;60.058;30.346;2023-02-12T20:25:09;100885.47;;;2.36;74.82
50650;BME280;36621;60.058;30.346;2023-02-12T20:32:42;100832.22;;;1.79;75.10
50650;BME280;36621;60.058;30.346;2023-02-12T20:40:15;100936.81;;;2.41;74.87
50650;BME280;36621;60.058;30.346;2023-02-12T20:47:48;100928.38;;;2.31;74.88
50650;BME280;36621;60.058;30.346;2023-02-12T20:55:20;100900.56;;;2.37;75.17
50650;BME280;36621;60.058;30.346;2023-02-12T21:02:53;100915.69;;;2.38;75.14
50650;BME280;36621;60.058;30.346;2023-02-12T21:10:26;100905.13;;;2.43;75.26
50650;BME280;36621;60.058;30.346;2023-02-12T21:18:02;100908.03;;;2.41;75.15
50650;BME280;36621;60.058;30.346;2023-02-12T21:25:59;100844.09;;;2.17;75.45
50650;BME280;36621;60.058;30.346;2023-02-12T21:33:54;100906.94;;;2.56;75.63
50650;BME280;36621;60.058;30.346;2023-02-12T21:50:27;100926.03;;;2.48;75.37
50650;BME280;36621;60.058;30.346;2023-02-12T21:58:01;100915.44;;;2.53;75.21
50650;BME280;36621;60.058;30.346;2023-02-12T22:05:34;100890.78;;;2.49;75.09
50650;BME280;36621;60.058;30.346;2023-02-12T22:13:31;100905.66;;;2.58;75.78
50650;BME280;36621;60.058;30.346;2023-02-12T22:21:04;100910.50;;;2.82;75.54
50650;BME280;36621;60.058;30.346;2023-02-12T22:28:40;100879.78;;;2.51;74.93
50650;BME280;36621;60.058;30.346;2023-02-12T22:36:13;100907.31;;;2.59;75.07
50650;BME280;36621;60.058;30.346;2023-02-12T22:43:45;100886.69;;;2.40;75.07
50650;BME280;36621;60.058;30.346;2023-02-12T22:51:19;100882.88;;;2.54;75.07
50650;BME280;36621;60.058;30.346;2023-02-12T22:58:54;100890.69;;;2.63;75.21
50650;BME280;36621;60.058;30.346;2023-02-12T23:06:28;100901.97;;;2.53;74.90
50650;BME280;36621;60.058;30.346;2023-02-12T23:14:03;100881.69;;;2.37;74.57
50650;BME280;36621;60.058;30.346;2023-02-12T23:21:36;100908.19;;;2.53;74.84
50650;BME280;36621;60.058;30.346;2023-02-12T23:29:08;100920.56;;;2.68;74.67
50650;BME280;36621;60.058;30.346;2023-02-12T23:36:40;100912.28;;;2.63;74.50
50650;BME280;36621;60.058;30.346;2023-02-12T23:44:12;100919.19;;;2.45;74.97
50650;BME280;36621;60.058;30.346;2023-02-12T23:51:45;100925.94;;;2.68;74.99
50650;BME280;36621;60.058;30.346;2023-02-12T23:59:17;100916.84;;;2.62;74.74
